Time;durP1;ratioP1;P1;durP2;ratioP2;P2;SDS_P1;SDS_P2;PMS_P1;PMS_P2;Temp;Humidity;BMP_temperature;BMP_pressure;BME280_temperature;BME280_humidity;BME280_pressure;Samples;Min_cycle;Max_cycle;Signal;HPM_P1;HPM_P2
2023/02/03 00:00:09;;;;;;;14.05;5.60;;;2.90;1.00;;;;;;6249593;22;20234;-81
2023/02/03 00:02:37;;;;;;;12.68;6.03;;;3.00;1.00;;;;;;6251287;22;20216;-81
2023/02/03 00:05:05;;;;;;;16.15;5.28;;;2.90;1.00;;;;;;6251312;22;20939;-80
2023/02/03 00:07:33;;;;;;;14.18;6.40;;;2.90;1.00;;;;;;6252543;22;20219;-82
2023/02/03 00:10:02;;;;;;;12.57;5.30;;;2.90;1.00;;;;;;6252520;22;20220;-84
2023/02/03 00:12:29;;;;;;;10.75;4.85;;;2.90;1.00;;;;;;6253099;22;20204;-79
2023/02/03 00:14:56;;;;;;;11.38;4.80;;;3.00;1.00;;;;;;6251409;22;20192;-80
2023/02/03 00:17:25;;;;;;;13.13;5.25;;;3.00;1.00;;;;;;6253295;22;20209;-80
2023/02/03 00:19:52;;;;;;;12.43;5.78;;;3.00;1.00;;;;;;6254250;22;20217;-84
2023/02/03 00:22:22;;;;;;;10.02;5.07;;;3.00;1.00;;;;;;6250238;22;20216;-85
2023/02/03 00:24:49;;;;;;;15.02;6.00;;;3.00;1.00;;;;;;6252098;22;20212;-83
2023/02/03 00:27:16;;;;;;;15.35;5.75;;;2.90;1.00;;;;;;6253047;22;20212;-81
2023/02/03 00:29:43;;;;;;;13.70;5.47;;;3.00;1.00;;;;;;6254574;22;20636;-81
2023/02/03 00:32:11;;;;;;;13.55;5.53;;;3.10;1.00;;;;;;6254354;22;20212;-80
2023/02/03 00:34:47;;;;;;;10.68;5.60;;;3.00;1.00;;;;;;6257340;22;20205;-81
2023/02/03 00:37:14;;;;;;;14.80;5.00;;;3.10;1.00;;;;;;6254803;22;20215;-82
2023/02/03 00:39:42;;;;;;;11.52;4.68;;;3.00;1.00;;;;;;6255041;22;20216;-80
2023/02/03 00:42:09;;;;;;;15.48;5.65;;;3.00;1.00;;;;;;6255962;22;20336;-80
2023/02/03 00:44:36;;;;;;;13.38;4.70;;;2.90;1.00;;;;;;6257772;22;20216;-80
2023/02/03 00:47:03;;;;;;;11.52;5.07;;;2.90;1.00;;;;;;6254886;22;20217;-80
2023/02/03 00:49:30;;;;;;;16.48;5.45;;;2.80;1.00;;;;;;6256623;22;20201;-81
2023/02/03 00:52:00;;;;;;;13.00;5.35;;;2.80;1.00;;;;;;6254630;22;20209;-82
2023/02/03 00:54:27;;;;;;;11.18;5.05;;;2.90;1.00;;;;;;6256287;22;20210;-79
2023/02/03 00:56:54;;;;;;;12.52;5.75;;;2.90;1.00;;;;;;6253362;22;20236;-80
2023/02/03 00:59:21;;;;;;;16.02;6.30;;;2.90;1.00;;;;;;6254438;22;20893;-82
2023/02/03 01:01:49;;;;;;;14.13;5.18;;;2.90;1.00;;;;;;6255859;22;20287;-81
2023/02/03 01:04:16;;;;;;;18.38;5.32;;;3.00;1.00;;;;;;6254679;22;20283;-80
2023/02/03 01:06:44;;;;;;;13.30;5.68;;;3.00;1.00;;;;;;6252450;22;20227;-80
2023/02/03 01:09:14;;;;;;;13.10;5.57;;;3.00;1.00;;;;;;6253929;22;20216;-81
2023/02/03 01:11:42;;;;;;;14.70;5.07;;;3.00;1.00;;;;;;6254495;22;20213;-81
2023/02/03 01:14:13;;;;;;;13.80;6.10;;;3.10;1.00;;;;;;6251085;22;20224;-85
2023/02/03 01:16:40;;;;;;;17.23;6.10;;;3.10;1.00;;;;;;6253797;22;20224;-84
2023/02/03 01:19:13;;;;;;;14.02;6.07;;;3.10;1.00;;;;;;6253354;22;20221;-80
2023/02/03 01:21:40;;;;;;;15.57;5.68;;;3.10;1.00;;;;;;6253644;22;20236;-82
2023/02/03 01:24:08;;;;;;;21.05;6.68;;;3.10;1.00;;;;;;6252973;22;20291;-82
2023/02/03 01:26:36;;;;;;;17.00;6.38;;;3.10;1.00;;;;;;6257359;22;20662;-81
2023/02/03 01:29:04;;;;;;;15.00;6.55;;;3.20;1.00;;;;;;6252816;22;20221;-79
2023/02/03 01:31:34;;;;;;;14.15;5.68;;;3.20;1.00;;;;;;6255640;22;20235;-80
2023/02/03 01:34:03;;;;;;;19.10;7.35;;;3.20;1.00;;;;;;6254765;22;20941;-80
2023/02/03 01:36:32;;;;;;;16.35;6.45;;;3.20;1.00;;;;;;6256158;22;20304;-80
2023/02/03 01:39:01;;;;;;;13.40;6.65;;;3.10;1.00;;;;;;6252522;22;20217;-80
2023/02/03 01:41:31;;;;;;;20.38;8.20;;;3.10;1.00;;;;;;6254576;22;20283;-80
2023/02/03 01:44:01;;;;;;;20.25;7.25;;;3.10;1.00;;;;;;6255543;22;20236;-80
2023/02/03 01:46:31;;;;;;;15.98;7.25;;;3.10;1.00;;;;;;6254012;22;20216;-80
2023/02/03 01:49:06;;;;;;;17.35;7.35;;;3.10;1.00;;;;;;6254146;22;21025;-81
2023/02/03 01:51:34;;;;;;;19.40;8.68;;;3.10;1.00;;;;;;6255905;22;20236;-81
2023/02/03 01:54:04;;;;;;;18.42;7.68;;;3.10;1.00;;;;;;6254843;22;20243;-81
2023/02/03 01:56:35;;;;;;;18.10;9.15;;;3.00;1.00;;;;;;6252620;22;20209;-81
2023/02/03 01:59:03;;;;;;;15.43;7.40;;;3.00;1.00;;;;;;6253915;22;20213;-81
2023/02/03 02:01:33;;;;;;;18.60;8.80;;;3.00;1.00;;;;;;6252798;22;20248;-81
2023/02/03 02:04:03;;;;;;;15.95;7.15;;;3.00;1.00;;;;;;6253315;22;20211;-81
2023/02/03 02:06:30;;;;;;;15.45;7.43;;;2.90;1.00;;;;;;6255119;22;20212;-81
2023/02/03 02:09:02;;;;;;;13.63;6.75;;;2.90;1.00;;;;;;6252942;22;20220;-80
2023/02/03 02:11:29;;;;;;;15.50;8.00;;;2.90;1.00;;;;;;6255480;22;20209;-80
2023/02/03 02:14:02;;;;;;;16.50;7.88;;;2.90;1.00;;;;;;6252653;22;20204;-81
2023/02/03 02:16:42;;;;;;;15.38;7.85;;;2.90;1.00;;;;;;6254452;22;20209;-81
2023/02/03 02:19:38;;;;;;;15.98;7.10;;;2.90;1.00;;;;;;6253972;22;20278;-82
2023/02/03 02:22:13;;;;;;;14.60;7.78;;;2.90;1.00;;;;;;6251176;22;20287;-80
2023/02/03 02:25:06;;;;;;;15.85;7.47;;;2.90;1.00;;;;;;6245561;22;20215;-79
2023/02/03 02:28:04;;;;;;;16.75;8.65;;;2.80;1.00;;;;;;6284267;22;20209;-80
2023/02/03 02:30:54;;;;;;;15.82;8.35;;;2.80;1.00;;;;;;6285889;22;20219;-80
2023/02/03 02:33:34;;;;;;;16.73;8.48;;;2.80;1.00;;;;;;6285385;22;20212;-80
2023/02/03 02:36:13;;;;;;;14.82;8.25;;;2.80;1.00;;;;;;6284550;22;20617;-82
2023/02/03 02:38:54;;;;;;;16.77;7.85;;;2.80;1.00;;;;;;6286483;22;20746;-83
2023/02/03 02:41:28;;;;;;;14.98;7.22;;;2.80;1.00;;;;;;6285489;22;20224;-82
2023/02/03 02:44:01;;;;;;;13.13;6.35;;;2.80;1.00;;;;;;6284957;22;20207;-82
2023/02/03 02:46:35;;;;;;;14.32;6.30;;;2.70;1.00;;;;;;6283662;22;20216;-80
2023/02/03 02:49:09;;;;;;;13.85;6.20;;;2.70;1.00;;;;;;6284618;22;20215;-79
2023/02/03 02:51:39;;;;;;;9.70;5.38;;;2.60;1.00;;;;;;6284346;22;20660;-79
2023/02/03 02:54:09;;;;;;;10.88;5.95;;;2.60;1.00;;;;;;6286260;22;20219;-81
2023/02/03 02:56:40;;;;;;;10.07;6.03;;;2.50;1.00;;;;;;6286811;22;20212;-81
2023/02/03 02:59:08;;;;;;;9.00;4.80;;;2.50;1.00;;;;;;6285560;22;20219;-81
2023/02/03 03:01:36;;;;;;;10.20;4.68;;;2.40;1.00;;;;;;6287345;22;20216;-82
2023/02/03 03:04:08;;;;;;;10.05;5.10;;;2.40;1.00;;;;;;6285764;22;20216;-82
2023/02/03 03:06:38;;;;;;;10.32;4.40;;;2.40;1.00;;;;;;6286884;22;20208;-83
2023/02/03 03:09:08;;;;;;;11.05;4.70;;;2.40;1.00;;;;;;6284916;22;20736;-84
2023/02/03 03:11:43;;;;;;;10.00;4.53;;;2.40;1.00;;;;;;6286941;22;20558;-83
2023/02/03 03:14:13;;;;;;;8.25;3.83;;;2.40;1.00;;;;;;6284930;22;21551;-82
2023/02/03 03:16:46;;;;;;;8.48;4.40;;;2.40;1.00;;;;;;6293346;22;20208;-81
2023/02/03 03:19:19;;;;;;;8.52;4.88;;;2.40;1.00;;;;;;6284715;22;20820;-81
2023/02/03 03:21:50;;;;;;;9.15;3.75;;;2.40;1.00;;;;;;6284324;22;20215;-81
2023/02/03 03:24:24;;;;;;;9.50;4.70;;;2.40;1.00;;;;;;6283992;22;20212;-81
2023/02/03 03:26:54;;;;;;;9.88;4.72;;;2.40;1.00;;;;;;6271680;22;20255;-81
2023/02/03 03:29:25;;;;;;;8.80;4.32;;;2.50;1.00;;;;;;6282692;22;20208;-81
2023/02/03 03:31:53;;;;;;;8.52;4.43;;;2.40;1.00;;;;;;6285612;22;20286;-81
2023/02/03 03:34:23;;;;;;;8.45;4.65;;;2.40;1.00;;;;;;6285367;22;20925;-81
2023/02/03 03:36:58;;;;;;;8.25;4.45;;;2.50;1.00;;;;;;6285574;22;20208;-82
2023/02/03 03:39:35;;;;;;;8.82;4.15;;;2.50;1.00;;;;;;6241523;22;20294;-82
2023/02/03 03:42:10;;;;;;;8.65;4.00;;;2.40;1.00;;;;;;6285230;22;20220;-83
2023/02/03 03:44:43;;;;;;;8.15;3.47;;;2.50;1.00;;;;;;6286703;22;20219;-81
2023/02/03 03:47:16;;;;;;;7.38;3.90;;;2.50;1.00;;;;;;6285761;22;20208;-82
2023/02/03 03:49:50;;;;;;;8.00;3.90;;;2.50;1.00;;;;;;6284532;22;20207;-82
2023/02/03 03:52:26;;;;;;;7.97;3.83;;;2.50;1.00;;;;;;6284099;22;20224;-82
2023/02/03 03:54:55;;;;;;;7.65;3.70;;;2.50;1.00;;;;;;6285186;22;20208;-81
2023/02/03 03:57:25;;;;;;;7.45;3.72;;;2.50;1.00;;;;;;6285632;22;20238;-83
2023/02/03 03:59:54;;;;;;;9.52;4.38;;;2.60;1.00;;;;;;6285630;22;20191;-83
2023/02/03 04:02:24;;;;;;;7.43;3.72;;;2.70;1.00;;;;;;6285180;22;20195;-81
2023/02/03 04:04:55;;;;;;;6.90;3.30;;;2.80;1.00;;;;;;6285931;22;21036;-82
2023/02/03 04:07:24;;;;;;;7.15;3.58;;;2.70;1.00;;;;;;6286524;22;20215;-82
2023/02/03 04:09:51;;;;;;;7.50;3.65;;;2.80;1.00;;;;;;6285479;22;20212;-84
2023/02/03 04:12:26;;;;;;;8.30;3.20;;;2.80;1.00;;;;;;6283359;22;20207;-82
2023/02/03 04:14:53;;;;;;;8.02;3.72;;;3.00;1.00;;;;;;6285524;22;20222;-81
2023/02/03 04:17:25;;;;;;;7.03;3.50;;;3.10;1.00;;;;;;6285191;22;20215;-82
2023/02/03 04:19:55;;;;;;;8.32;3.75;;;3.10;1.00;;;;;;6286320;22;21055;-81
2023/02/03 04:22:34;;;;;;;8.15;4.03;;;3.10;1.00;;;;;;6283875;22;20715;-81
2023/02/03 04:25:07;;;;;;;8.68;3.65;;;3.20;1.00;;;;;;6284144;22;20215;-81
2023/02/03 04:27:35;;;;;;;8.30;4.90;;;3.30;1.00;;;;;;6283790;22;20267;-82
2023/02/03 04:30:04;;;;;;;7.85;4.20;;;3.40;1.00;;;;;;6284127;22;20901;-83
2023/02/03 04:32:34;;;;;;;8.20;4.70;;;3.40;1.00;;;;;;6284563;22;20215;-81
2023/02/03 04:35:08;;;;;;;9.57;4.55;;;3.50;1.00;;;;;;6283601;22;20211;-82
2023/02/03 04:37:36;;;;;;;10.43;6.03;;;3.50;1.00;;;;;;6284765;22;20671;-81
2023/02/03 04:40:06;;;;;;;11.05;6.25;;;3.50;1.00;;;;;;6285114;22;20212;-82
2023/02/03 04:42:33;;;;;;;11.60;6.85;;;3.50;1.00;;;;;;6286525;22;20216;-81
2023/02/03 04:45:05;;;;;;;9.95;6.32;;;3.60;1.00;;;;;;6285506;22;20222;-82
2023/02/03 04:47:33;;;;;;;10.80;6.55;;;3.60;1.00;;;;;;6272365;22;20204;-81
2023/02/03 04:50:04;;;;;;;11.30;7.93;;;3.70;1.00;;;;;;6284070;22;20212;-82
2023/02/03 04:52:36;;;;;;;15.52;8.10;;;3.80;1.00;;;;;;6284967;22;20782;-81
2023/02/03 04:55:05;;;;;;;14.60;11.20;;;3.80;1.00;;;;;;6285002;22;20729;-82
2023/02/03 04:57:33;;;;;;;13.85;7.65;;;3.90;1.00;;;;;;6287832;22;20603;-80
2023/02/03 05:00:06;;;;;;;15.68;9.05;;;4.00;1.00;;;;;;6284638;22;20295;-82
2023/02/03 05:02:33;;;;;;;13.70;8.00;;;4.00;1.00;;;;;;6285895;22;20286;-81
2023/02/03 05:05:06;;;;;;;13.38;8.68;;;4.10;1.00;;;;;;6286653;22;20632;-83
2023/02/03 05:07:45;;;;;;;13.88;8.90;;;4.20;1.00;;;;;;6287159;22;20212;-82
2023/02/03 05:10:13;;;;;;;15.18;10.75;;;4.20;1.00;;;;;;6288320;22;20204;-83
2023/02/03 05:12:46;;;;;;;15.30;9.88;;;4.30;1.00;;;;;;6286567;22;20238;-82
2023/02/03 05:15:13;;;;;;;15.70;11.15;;;4.40;1.00;;;;;;6286445;22;20569;-82
2023/02/03 05:17:43;;;;;;;18.55;10.80;;;4.50;1.00;;;;;;6286994;22;20208;-82
2023/02/03 05:20:11;;;;;;;17.58;12.05;;;4.60;1.00;;;;;;6257500;22;20226;-85
2023/02/03 05:22:40;;;;;;;19.48;13.18;;;4.60;1.00;;;;;;6286866;22;20200;-82
2023/02/03 05:25:19;;;;;;;;;;;;;;;;;;;;;
2023/02/03 05:27:46;;;;;;;18.98;12.48;;;4.80;1.00;;;;;;6283674;22;39097;-83
2023/02/03 05:30:13;;;;;;;21.38;13.63;;;4.90;1.00;;;;;;6285770;22;20280;-84
2023/02/03 05:32:46;;;;;;;20.17;13.30;;;5.00;1.00;;;;;;6285543;22;20225;-83
2023/02/03 05:35:13;;;;;;;21.38;14.60;;;5.00;1.00;;;;;;6284854;22;20716;-84
2023/02/03 05:37:45;;;;;;;21.75;13.75;;;5.10;1.00;;;;;;6286153;22;20219;-84
2023/02/03 05:43:01;;;;;;;20.58;13.68;;;5.20;1.00;;;;;;6269983;22;20208;-84
2023/02/03 05:45:31;;;;;;;22.92;15.57;;;5.30;1.00;;;;;;6283894;22;20287;-82
2023/02/03 05:47:57;;;;;;;25.33;15.40;;;5.40;1.00;;;;;;6286399;22;20203;-81
2023/02/03 05:50:25;;;;;;;24.67;16.30;;;5.40;1.00;;;;;;6285896;22;20664;-82
2023/02/03 05:52:54;;;;;;;25.73;20.77;;;5.50;1.00;;;;;;6271381;22;20219;-81
2023/02/03 05:55:27;;;;;;;27.33;17.80;;;5.60;1.00;;;;;;6287285;22;20336;-83
2023/02/03 05:57:54;;;;;;;24.73;15.95;;;5.70;1.00;;;;;;6286876;22;20216;-82
2023/02/03 06:00:24;;;;;;;23.73;16.80;;;5.70;1.00;;;;;;6287735;22;21017;-82
2023/02/03 06:02:52;;;;;;;29.30;18.83;;;5.80;1.00;;;;;;6288439;22;20283;-82
2023/02/03 06:05:27;;;;;;;28.98;18.20;;;5.80;1.00;;;;;;6271161;22;20323;-82
2023/02/03 06:07:55;;;;;;;35.15;21.45;;;5.90;1.00;;;;;;6288188;22;20203;-82
2023/02/03 06:10:27;;;;;;;29.77;19.17;;;6.00;1.00;;;;;;6285785;22;20200;-82
2023/02/03 06:12:56;;;;;;;30.30;19.23;;;6.10;1.00;;;;;;6288123;22;20212;-82
2023/02/03 06:15:26;;;;;;;27.98;21.17;;;6.20;1.00;;;;;;6287852;22;20255;-80
2023/02/03 06:17:53;;;;;;;28.30;19.85;;;6.30;1.00;;;;;;6285540;22;20217;-82
2023/02/03 06:20:21;;;;;;;31.75;19.10;;;6.30;1.00;;;;;;6285358;22;20208;-82
2023/02/03 06:22:48;;;;;;;29.20;20.70;;;6.40;1.00;;;;;;6285889;22;20559;-83
2023/02/03 06:25:16;;;;;;;33.80;20.48;;;6.50;1.00;;;;;;6283920;22;20981;-83
2023/02/03 06:27:45;;;;;;;29.10;19.67;;;6.50;1.00;;;;;;6285478;22;20215;-82
2023/02/03 06:30:13;;;;;;;26.92;18.52;;;6.50;1.00;;;;;;6287370;22;20223;-83
2023/02/03 06:32:42;;;;;;;27.35;18.65;;;6.60;1.00;;;;;;6288383;22;20216;-82
2023/02/03 06:35:09;;;;;;;32.20;20.55;;;6.60;1.00;;;;;;6285020;22;20208;-82
2023/02/03 06:37:37;;;;;;;28.20;19.25;;;6.60;1.00;;;;;;6289187;22;20993;-83
2023/02/03 06:40:07;;;;;;;28.02;19.83;;;6.70;1.00;;;;;;6284902;22;20216;-82
2023/02/03 06:42:36;;;;;;;31.15;19.85;;;6.70;1.00;;;;;;6285077;22;20205;-83
2023/02/03 06:45:07;;;;;;;26.40;19.33;;;6.80;1.00;;;;;;6258255;22;20295;-85
2023/02/03 06:47:49;;;;;;;29.23;20.02;;;6.80;1.00;;;;;;6285861;22;20210;-83
2023/02/03 06:50:16;;;;;;;29.77;19.90;;;6.80;1.00;;;;;;6284587;22;20219;-83
2023/02/03 06:52:46;;;;;;;29.73;19.77;;;6.80;1.00;;;;;;6284918;22;20244;-87
2023/02/03 06:55:13;;;;;;;29.15;19.60;;;6.80;1.00;;;;;;6284268;22;20216;-83
2023/02/03 06:57:49;;;;;;;28.17;19.60;;;6.90;1.00;;;;;;6286121;22;20631;-83
2023/02/03 07:00:17;;;;;;;28.27;18.58;;;6.90;1.00;;;;;;6285945;22;20212;-83
2023/02/03 07:02:52;;;;;;;30.08;17.83;;;6.90;1.00;;;;;;6287082;22;20220;-83
2023/02/03 07:05:27;;;;;;;27.75;19.38;;;6.90;1.00;;;;;;6286869;22;20719;-83
2023/02/03 07:07:55;;;;;;;23.85;20.02;;;7.00;1.00;;;;;;6287203;22;20693;-82
2023/02/03 07:10:25;;;;;;;27.50;19.35;;;7.00;1.00;;;;;;6288658;22;20279;-84
2023/02/03 07:12:53;;;;;;;24.13;18.38;;;7.00;1.00;;;;;;6289052;22;20817;-84
2023/02/03 07:15:25;;;;;;;25.45;17.98;;;7.00;1.00;;;;;;6285050;22;20209;-83
2023/02/03 07:17:54;;;;;;;24.45;18.20;;;7.10;1.00;;;;;;6286022;22;20228;-83
2023/02/03 07:20:27;;;;;;;24.08;19.77;;;7.10;1.00;;;;;;6285786;22;20216;-82
2023/02/03 07:22:55;;;;;;;25.65;18.65;;;7.10;1.00;;;;;;6286316;22;20219;-86
2023/02/03 07:25:28;;;;;;;24.98;17.33;;;7.10;1.00;;;;;;6254380;22;20389;-81
2023/02/03 07:27:57;;;;;;;21.58;18.02;;;7.10;1.00;;;;;;6253473;22;20209;-83
2023/02/03 07:30:27;;;;;;;21.73;18.38;;;7.20;1.00;;;;;;6252428;22;20320;-82
2023/02/03 07:32:57;;;;;;;24.02;19.00;;;7.20;1.00;;;;;;6256473;22;20855;-82
2023/02/03 07:35:27;;;;;;;21.75;17.42;;;7.20;1.00;;;;;;6255880;22;20275;-82
2023/02/03 07:37:56;;;;;;;26.40;18.17;;;7.20;1.00;;;;;;6242465;22;20637;-82
2023/02/03 07:40:25;;;;;;;26.70;18.77;;;7.20;1.00;;;;;;6256207;22;20213;-81
2023/02/03 07:42:56;;;;;;;23.58;17.02;;;7.20;1.00;;;;;;6256976;22;20226;-83
2023/02/03 07:45:24;;;;;;;19.35;16.05;;;7.20;1.00;;;;;;6255777;22;20214;-82
2023/02/03 07:47:57;;;;;;;17.30;15.18;;;7.30;1.00;;;;;;6241037;22;20206;-82
2023/02/03 07:50:24;;;;;;;21.63;16.17;;;7.30;1.00;;;;;;6257606;22;20205;-82
2023/02/03 07:52:57;;;;;;;19.52;14.60;;;7.30;1.00;;;;;;6258295;22;20210;-84
2023/02/03 07:55:24;;;;;;;17.73;15.43;;;7.30;1.00;;;;;;6257166;22;20209;-82
2023/02/03 07:57:57;;;;;;;22.25;14.82;;;7.30;1.00;;;;;;6258535;22;20235;-80
2023/02/03 08:00:26;;;;;;;15.48;13.88;;;7.30;1.00;;;;;;6256295;22;20697;-81
2023/02/03 08:02:55;;;;;;;17.17;14.10;;;7.30;1.00;;;;;;6259324;22;20190;-81
2023/02/03 08:05:22;;;;;;;18.88;15.40;;;7.30;1.00;;;;;;6241064;22;20265;-82
2023/02/03 08:07:54;;;;;;;18.08;12.80;;;7.30;1.00;;;;;;6243983;22;20213;-81
2023/02/03 08:10:23;;;;;;;13.80;12.38;;;7.30;1.00;;;;;;6240727;22;20287;-84
2023/02/03 08:12:53;;;;;;;19.92;13.20;;;7.30;1.00;;;;;;6236676;22;20912;-85
2023/02/03 08:15:21;;;;;;;15.75;12.80;;;7.30;1.00;;;;;;6248790;22;20212;-82
2023/02/03 08:17:50;;;;;;;14.20;12.70;;;7.30;1.00;;;;;;6222272;22;20261;-81
2023/02/03 08:20:18;;;;;;;13.40;10.80;;;7.40;1.00;;;;;;6250608;22;20216;-82
2023/02/03 08:22:45;;;;;;;14.45;12.05;;;7.40;1.00;;;;;;6250584;22;20312;-81
2023/02/03 08:25:18;;;;;;;13.30;11.38;;;7.40;1.00;;;;;;6263410;22;20944;-84
2023/02/03 08:27:45;;;;;;;12.20;10.50;;;7.30;1.00;;;;;;6253035;22;20351;-84
2023/02/03 08:30:16;;;;;;;13.50;11.77;;;7.40;1.00;;;;;;6259117;22;20692;-83
2023/02/03 08:32:45;;;;;;;11.85;10.20;;;7.40;1.00;;;;;;6260600;22;20204;-84
2023/02/03 08:35:16;;;;;;;12.38;10.65;;;7.40;1.00;;;;;;6255629;22;20208;-83
2023/02/03 08:37:45;;;;;;;13.65;10.95;;;7.40;1.00;;;;;;6257046;22;20214;-83
2023/02/03 08:40:18;;;;;;;13.80;11.20;;;7.40;1.00;;;;;;6257483;22;20216;-84
2023/02/03 08:42:47;;;;;;;12.27;10.75;;;7.40;1.00;;;;;;6267871;22;20208;-82
2023/02/03 08:45:16;;;;;;;13.00;10.13;;;7.40;1.00;;;;;;6268409;22;21113;-85
2023/02/03 08:47:43;;;;;;;10.93;9.82;;;7.40;1.00;;;;;;6281910;22;20942;-84
2023/02/03 08:50:18;;;;;;;10.00;8.63;;;7.40;1.00;;;;;;6281909;22;20219;-83
2023/02/03 08:52:47;;;;;;;10.15;9.05;;;7.40;1.00;;;;;;6272917;22;20318;-83
2023/02/03 08:55:17;;;;;;;11.02;8.98;;;7.40;1.00;;;;;;6254835;22;20261;-83
2023/02/03 08:57:46;;;;;;;11.10;9.20;;;7.50;1.00;;;;;;6284148;22;20219;-83
2023/02/03 09:00:16;;;;;;;12.85;8.55;;;7.50;1.00;;;;;;6252800;22;20214;-85
2023/02/03 09:02:45;;;;;;;10.35;9.27;;;7.50;1.00;;;;;;6256187;22;20217;-84
2023/02/03 09:05:17;;;;;;;10.02;9.02;;;7.50;1.00;;;;;;6238753;22;20255;-83
2023/02/03 09:07:48;;;;;;;9.15;7.82;;;7.50;1.00;;;;;;6253702;22;20216;-82
2023/02/03 09:10:18;;;;;;;9.85;8.85;;;7.50;1.00;;;;;;6253748;22;20274;-84
2023/02/03 09:12:45;;;;;;;9.50;8.10;;;7.50;1.00;;;;;;6254374;22;20728;-83
2023/02/03 09:15:12;;;;;;;8.70;7.80;;;7.60;1.00;;;;;;6282835;22;20209;-84
2023/02/03 09:17:39;;;;;;;8.52;7.18;;;7.60;1.00;;;;;;6283042;22;20212;-84
2023/02/03 09:20:08;;;;;;;8.48;7.03;;;7.60;1.00;;;;;;6268445;22;20249;-85
2023/02/03 09:22:36;;;;;;;8.05;6.65;;;7.60;1.00;;;;;;6256514;22;20355;-83
2023/02/03 09:25:15;;;;;;;7.82;6.50;;;7.60;1.00;;;;;;6240511;22;20288;-84
2023/02/03 09:27:42;;;;;;;7.95;6.72;;;7.60;1.00;;;;;;6268791;22;20980;-87
2023/02/03 09:30:14;;;;;;;7.20;6.20;;;7.60;1.00;;;;;;6269175;22;21060;-83
2023/02/03 09:32:47;;;;;;;7.95;6.90;;;7.60;1.00;;;;;;6286122;22;20217;-81
2023/02/03 09:35:39;;;;;;;;;;;;;;;;;;;;;
2023/02/03 09:38:28;;;;;;;7.97;6.75;;;7.60;1.00;;;;;;6255742;22;38503;-84
2023/02/03 09:47:40;;;;;;;7.15;5.80;;;7.70;1.00;;;;;;6226577;22;20265;-82
2023/02/03 09:50:25;;;;;;;6.18;5.13;;;7.70;1.00;;;;;;6255602;22;20205;-83
2023/02/03 09:53:04;;;;;;;7.50;5.80;;;7.70;1.00;;;;;;6261226;22;20213;-83
2023/02/03 09:55:41;;;;;;;5.93;5.10;;;7.70;1.00;;;;;;6255873;22;20204;-82
2023/02/03 09:58:12;;;;;;;8.43;6.65;;;7.80;1.00;;;;;;6286758;22;20221;-85
2023/02/03 10:00:43;;;;;;;6.20;5.60;;;7.80;1.00;;;;;;6286027;22;20258;-82
2023/02/03 10:03:25;;;;;;;6.82;5.13;;;7.80;1.00;;;;;;6257268;22;20209;-83
2023/02/03 10:06:14;;;;;;;5.32;4.82;;;7.80;1.00;;;;;;6260112;22;20214;-84
2023/02/03 10:09:08;;;;;;;7.15;4.78;;;7.90;1.00;;;;;;6261596;22;20216;-83
2023/02/03 10:12:35;;;;;;;6.95;5.15;;;7.90;1.00;;;;;;6273492;22;20209;-84
2023/02/03 10:15:55;;;;;;;8.63;5.03;;;7.90;1.00;;;;;;6263107;22;20243;-85
2023/02/03 10:18:35;;;;;;;7.53;5.80;;;7.90;1.00;;;;;;6289471;22;20287;-84
2023/02/03 10:21:16;;;;;;;7.10;5.45;;;7.90;1.00;;;;;;6247736;22;20283;-85
2023/02/03 10:23:50;;;;;;;8.50;5.10;;;8.00;1.00;;;;;;6290556;22;20866;-83
2023/02/03 10:26:21;;;;;;;5.60;4.15;;;8.00;1.00;;;;;;6272362;22;20212;-83
2023/02/03 10:28:53;;;;;;;5.90;4.40;;;8.00;1.00;;;;;;6292844;22;20216;-83
2023/02/03 10:31:37;;;;;;;7.07;4.80;;;8.00;1.00;;;;;;6288575;22;20244;-83
2023/02/03 10:34:14;;;;;;;5.32;3.92;;;8.00;1.00;;;;;;6288195;22;21031;-84
2023/02/03 10:36:56;;;;;;;8.90;4.38;;;8.10;1.00;;;;;;6275234;22;20228;-84
2023/02/03 10:39:32;;;;;;;5.53;3.72;;;8.10;1.00;;;;;;6289757;22;20217;-84
2023/02/03 10:42:05;;;;;;;5.18;3.40;;;8.10;1.00;;;;;;6273388;22;20288;-83
2023/02/03 10:44:38;;;;;;;5.85;3.35;;;8.10;1.00;;;;;;6274730;22;20265;-83
2023/02/03 10:47:35;;;;;;;5.40;3.63;;;8.10;1.00;;;;;;6276198;22;20244;-84
2023/02/03 10:50:16;;;;;;;8.93;2.45;;;8.20;1.00;;;;;;6273098;22;20402;-83
2023/02/03 10:52:46;;;;;;;5.75;1.73;;;7.80;1.00;;;;;;6289756;22;20300;-83
2023/02/03 10:55:29;;;;;;;7.90;2.65;;;7.40;1.00;;;;;;6287708;22;20230;-84
2023/02/03 10:57:57;;;;;;;8.75;2.75;;;7.20;1.00;;;;;;6290135;22;20208;-81
2023/02/03 11:00:31;;;;;;;7.50;1.85;;;7.00;1.00;;;;;;6266678;22;20216;-83
2023/02/03 11:03:24;;;;;;;4.63;1.45;;;7.00;1.00;;;;;;6276190;22;20236;-83
2023/02/03 11:06:07;;;;;;;11.25;2.58;;;7.00;1.00;;;;;;6287829;22;20209;-83
2023/02/03 11:08:38;;;;;;;11.48;2.88;;;7.10;1.00;;;;;;6288685;22;20241;-83
2023/02/03 11:11:09;;;;;;;6.55;2.40;;;7.20;1.00;;;;;;6259693;22;20245;-83
2023/02/03 11:13:36;;;;;;;7.53;2.40;;;7.20;1.00;;;;;;6286663;22;20677;-83
2023/02/03 11:16:05;;;;;;;8.43;2.70;;;7.20;1.00;;;;;;6261882;22;20294;-83
2023/02/03 11:18:45;;;;;;;4.82;2.30;;;7.30;1.00;;;;;;6291099;22;20282;-82
2023/02/03 11:21:16;;;;;;;4.72;2.15;;;7.30;1.00;;;;;;6288416;22;20275;-83
2023/02/03 11:23:50;;;;;;;8.38;2.47;;;7.30;1.00;;;;;;6289243;22;20942;-84
2023/02/03 11:26:21;;;;;;;4.95;2.03;;;7.30;1.00;;;;;;6290504;22;20278;-84
2023/02/03 11:28:51;;;;;;;8.32;2.92;;;7.40;1.00;;;;;;6291243;22;20208;-84
2023/02/03 11:31:22;;;;;;;9.40;2.30;;;7.50;1.00;;;;;;6289101;22;20224;-83
2023/02/03 11:33:54;;;;;;;6.25;2.47;;;7.50;1.00;;;;;;6288375;22;20218;-84
2023/02/03 11:36:28;;;;;;;9.02;3.17;;;7.50;1.00;;;;;;6271387;22;20265;-84
2023/02/03 11:39:19;;;;;;;9.27;3.17;;;7.60;1.00;;;;;;6273910;22;20268;-85
2023/02/03 11:41:48;;;;;;;10.18;3.47;;;7.60;1.00;;;;;;6262757;22;20618;-83
2023/02/03 11:44:24;;;;;;;8.45;3.28;;;7.70;1.00;;;;;;6289804;22;20226;-83
2023/02/03 11:46:56;;;;;;;7.63;3.65;;;7.80;1.00;;;;;;6280716;22;20215;-84
2023/02/03 11:50:14;;;;;;;8.88;3.10;;;7.90;1.00;;;;;;6288862;22;20680;-84
2023/02/03 11:52:55;;;;;;;15.32;4.45;;;8.00;1.00;;;;;;6272094;22;20283;-84
2023/02/03 11:55:45;;;;;;;12.60;4.30;;;8.10;1.00;;;;;;6261176;22;20256;-83
2023/02/03 11:58:35;;;;;;;12.77;4.00;;;8.20;1.00;;;;;;6248988;22;20238;-83
2023/02/03 12:01:25;;;;;;;9.60;3.80;;;8.50;1.00;;;;;;6291212;22;20215;-84
2023/02/03 12:04:14;;;;;;;14.83;4.73;;;8.80;1.00;;;;;;6263034;22;20281;-83
2023/02/03 12:07:13;;;;;;;14.00;3.63;;;9.20;1.00;;;;;;6291065;22;20505;-84
2023/02/03 12:10:01;;;;;;;13.60;3.70;;;9.60;1.00;;;;;;6290323;22;20395;-82
2023/02/03 12:12:46;;;;;;;10.13;3.07;;;9.50;1.00;;;;;;6247342;22;20375;-84
2023/02/03 12:15:38;;;;;;;13.57;4.90;;;9.70;1.00;;;;;;6291586;22;20445;-84
2023/02/03 12:18:18;;;;;;;12.63;4.07;;;10.20;1.00;;;;;;6247538;22;20434;-82
2023/02/03 12:20:55;;;;;;;13.73;4.80;;;11.00;1.00;;;;;;6275884;22;20465;-82
2023/02/03 12:23:45;;;;;;;12.43;5.00;;;11.20;1.00;;;;;;6272145;22;21598;-84
2023/02/03 12:26:25;;;;;;;12.57;4.60;;;11.30;1.00;;;;;;6257791;22;20479;-83
2023/02/03 12:29:09;;;;;;;14.87;4.83;;;10.80;1.00;;;;;;6245358;22;20428;-84
2023/02/03 12:31:41;;;;;;;16.57;5.37;;;10.60;1.00;;;;;;6248500;22;20384;-82
2023/02/03 12:34:18;;;;;;;14.93;4.40;;;10.70;1.00;;;;;;6246645;22;20394;-83
2023/02/03 12:36:54;;;;;;;15.93;5.20;;;10.60;1.00;;;;;;6245942;22;20406;-83
2023/02/03 12:39:29;;;;;;;23.97;5.40;;;10.50;1.00;;;;;;6221986;22;20415;-84
2023/02/03 12:42:15;;;;;;;17.87;5.27;;;10.60;1.00;;;;;;6258524;22;20382;-79
2023/02/03 12:44:48;;;;;;;17.17;4.73;;;11.00;1.00;;;;;;6260875;22;20489;-82
2023/02/03 12:47:23;;;;;;;15.50;5.10;;;10.70;1.00;;;;;;6258923;22;20396;-84
2023/02/03 12:49:55;;;;;;;16.53;5.40;;;10.40;1.00;;;;;;6257035;22;20467;-86
2023/02/03 12:52:27;;;;;;;14.30;5.07;;;10.30;1.00;;;;;;6258952;22;20389;-84
2023/02/03 12:55:08;;;;;;;15.20;4.67;;;10.30;1.00;;;;;;6259061;22;20392;-82
2023/02/03 12:57:58;;;;;;;14.97;5.43;;;10.00;1.00;;;;;;6256512;22;20430;-84
2023/02/03 13:00:38;;;;;;;9.33;3.07;;;9.50;1.00;;;;;;6260831;22;20446;-84
2023/02/03 13:03:12;;;;;;;8.65;2.30;;;8.90;1.00;;;;;;6260583;22;20416;-82
2023/02/03 13:05:45;;;;;;;7.05;1.95;;;7.80;1.00;;;;;;6261184;22;20227;-82
2023/02/03 13:08:23;;;;;;;9.88;2.60;;;6.90;1.00;;;;;;6259372;22;20209;-83
2023/02/03 13:10:55;;;;;;;7.25;2.22;;;6.30;1.00;;;;;;6260461;22;20220;-81
2023/02/03 13:13:33;;;;;;;6.95;2.40;;;6.00;1.00;;;;;;6259336;22;20334;-83
2023/02/03 13:16:02;;;;;;;6.32;2.63;;;5.80;1.00;;;;;;6246965;22;20244;-82
2023/02/03 13:18:38;;;;;;;13.00;3.20;;;5.80;1.00;;;;;;6245548;22;20216;-83
2023/02/03 13:21:05;;;;;;;7.82;1.73;;;5.90;1.00;;;;;;6254763;22;20210;-83
2023/02/03 13:23:32;;;;;;;7.80;2.83;;;5.90;1.00;;;;;;6263311;22;20265;-82
2023/02/03 13:26:20;;;;;;;6.93;2.83;;;5.90;1.00;;;;;;6288897;22;20203;-84
2023/02/03 13:29:07;;;;;;;12.02;3.45;;;5.90;1.00;;;;;;6289741;22;20212;-83
2023/02/03 13:31:45;;;;;;;19.60;4.95;;;5.90;1.00;;;;;;6288908;22;20207;-82
2023/02/03 13:34:32;;;;;;;13.55;4.43;;;5.90;1.00;;;;;;6288390;22;20735;-83
2023/02/03 13:37:32;;;;;;;11.02;3.78;;;5.80;1.00;;;;;;6289826;22;20715;-83
2023/02/03 13:40:14;;;;;;;10.88;3.00;;;5.80;1.00;;;;;;6230808;22;20221;-83